sensor_id;sensor_type;location;lat;lon;timestamp;temperature;humidity
55173;DHT22;41061;52.822;6.860;2022-08-19T00:01:26;16.20;99.90
55173;DHT22;41061;52.822;6.860;2022-08-19T00:03:52;16.20;99.90
55173;DHT22;41061;52.822;6.860;2022-08-19T00:06:18;16.10;99.90
55173;DHT22;41061;52.822;6.860;2022-08-19T00:08:44;16.10;99.90
55173;DHT22;41061;52.822;6.860;2022-08-19T00:11:10;16.00;99.90
55173;DHT22;41061;52.822;6.860;2022-08-19T00:13:36;16.00;99.90
55173;DHT22;41061;52.822;6.860;2022-08-19T00:16:03;16.10;99.90
55173;DHT22;41061;52.822;6.860;2022-08-19T00:18:31;16.00;99.90
55173;DHT22;41061;52.822;6.860;2022-08-19T00:20:57;16.00;99.90
55173;DHT22;41061;52.822;6.860;2022-08-19T00:23:24;16.00;99.90
55173;DHT22;41061;52.822;6.860;2022-08-19T00:25:49;16.00;99.90
55173;DHT22;41061;52.822;6.860;2022-08-19T00:28:16;16.00;99.90
55173;DHT22;41061;52.822;6.860;2022-08-19T00:30:41;16.00;99.90
55173;DHT22;41061;52.822;6.860;2022-08-19T00:33:07;16.00;99.90
55173;DHT22;41061;52.822;6.860;2022-08-19T00:35:33;16.00;99.90
55173;DHT22;41061;52.822;6.860;2022-08-19T00:37:59;15.90;99.90
55173;DHT22;41061;52.822;6.860;2022-08-19T00:40:25;15.90;99.90
55173;DHT22;41061;52.822;6.860;2022-08-19T00:42:51;15.90;99.90
55173;DHT22;41061;52.822;6.860;2022-08-19T00:45:22;15.90;99.90
55173;DHT22;41061;52.822;6.860;2022-08-19T00:47:48;15.90;99.90
55173;DHT22;41061;52.822;6.860;2022-08-19T00:50:17;15.90;99.90
55173;DHT22;41061;52.822;6.860;2022-08-19T00:52:46;15.90;99.90
55173;DHT22;41061;52.822;6.860;2022-08-19T00:55:19;15.80;99.90
55173;DHT22;41061;52.822;6.860;2022-08-19T00:57:50;15.80;99.90
55173;DHT22;41061;52.822;6.860;2022-08-19T01:00:18;15.80;99.90
55173;DHT22;41061;52.822;6.860;2022-08-19T01:02:44;15.80;99.90
55173;DHT22;41061;52.822;6.860;2022-08-19T01:05:20;15.80;99.90
55173;DHT22;41061;52.822;6.860;2022-08-19T01:07:47;15.80;99.90
55173;DHT22;41061;52.822;6.860;2022-08-19T01:10:20;15.90;99.90
55173;DHT22;41061;52.822;6.860;2022-08-19T01:12:48;15.80;99.90
55173;DHT22;41061;52.822;6.860;2022-08-19T01:15:19;15.80;99.90
55173;DHT22;41061;52.822;6.860;2022-08-19T01:17:47;15.90;99.90
55173;DHT22;41061;52.822;6.860;2022-08-19T01:20:16;15.90;99.90
55173;DHT22;41061;52.822;6.860;2022-08-19T01:25:13;15.90;99.90
55173;DHT22;41061;52.822;6.860;2022-08-19T01:27:42;15.90;99.90
55173;DHT22;41061;52.822;6.860;2022-08-19T01:30:10;15.90;99.90
55173;DHT22;41061;52.822;6.860;2022-08-19T01:32:36;15.90;99.90
55173;DHT22;41061;52.822;6.860;2022-08-19T01:35:03;15.90;99.90
55173;DHT22;41061;52.822;6.860;2022-08-19T01:37:30;15.90;99.90
55173;DHT22;41061;52.822;6.860;2022-08-19T01:39:56;15.80;99.90
55173;DHT22;41061;52.822;6.860;2022-08-19T01:42:21;15.80;99.90
55173;DHT22;41061;52.822;6.860;2022-08-19T01:44:47;15.80;99.90
55173;DHT22;41061;52.822;6.860;2022-08-19T01:47:13;15.80;99.90
55173;DHT22;41061;52.822;6.860;2022-08-19T01:49:38;15.80;99.90
55173;DHT22;41061;52.822;6.860;2022-08-19T01:52:05;15.80;99.90
55173;DHT22;41061;52.822;6.860;2022-08-19T01:54:31;15.70;99.90
55173;DHT22;41061;52.822;6.860;2022-08-19T01:57:05;15.70;99.90
55173;DHT22;41061;52.822;6.860;2022-08-19T01:59:32;15.70;99.90
55173;DHT22;41061;52.822;6.860;2022-08-19T02:01:58;15.60;99.90
55173;DHT22;41061;52.822;6.860;2022-08-19T02:04:24;15.60;99.90
55173;DHT22;41061;52.822;6.860;2022-08-19T02:06:50;15.50;99.90
55173;DHT22;41061;52.822;6.860;2022-08-19T02:09:16;15.40;99.90
55173;DHT22;41061;52.822;6.860;2022-08-19T02:11:42;15.40;99.90
55173;DHT22;41061;52.822;6.860;2022-08-19T02:14:08;15.40;99.90
55173;DHT22;41061;52.822;6.860;2022-08-19T02:16:35;15.40;99.90
55173;DHT22;41061;52.822;6.860;2022-08-19T02:19:01;15.30;99.90
55173;DHT22;41061;52.822;6.860;2022-08-19T02:21:27;15.30;99.90
55173;DHT22;41061;52.822;6.860;2022-08-19T02:23:53;15.30;99.90
55173;DHT22;41061;52.822;6.860;2022-08-19T02:26:19;15.30;99.90
55173;DHT22;41061;52.822;6.860;2022-08-19T02:28:45;15.20;99.90
55173;DHT22;41061;52.822;6.860;2022-08-19T02:31:13;15.20;99.90
55173;DHT22;41061;52.822;6.860;2022-08-19T02:33:40;15.30;99.90
55173;DHT22;41061;52.822;6.860;2022-08-19T02:36:08;15.20;99.90
55173;DHT22;41061;52.822;6.860;2022-08-19T02:38:34;15.20;99.90
55173;DHT22;41061;52.822;6.860;2022-08-19T02:41:04;15.20;99.90
55173;DHT22;41061;52.822;6.860;2022-08-19T02:43:32;15.20;99.90
55173;DHT22;41061;52.822;6.860;2022-08-19T02:46:02;15.20;99.90
55173;DHT22;41061;52.822;6.860;2022-08-19T02:48:35;15.10;99.90
55173;DHT22;41061;52.822;6.860;2022-08-19T02:51:01;15.10;99.90
55173;DHT22;41061;52.822;6.860;2022-08-19T02:53:27;15.00;99.90
55173;DHT22;41061;52.822;6.860;2022-08-19T02:55:53;15.10;99.90
55173;DHT22;41061;52.822;6.860;2022-08-19T02:58:20;15.00;99.90
55173;DHT22;41061;52.822;6.860;2022-08-19T03:00:51;15.00;99.90
55173;DHT22;41061;52.822;6.860;2022-08-19T03:03:17;15.10;99.90
55173;DHT22;41061;52.822;6.860;2022-08-19T03:05:43;15.10;99.90
55173;DHT22;41061;52.822;6.860;2022-08-19T03:08:10;15.00;99.90
55173;DHT22;41061;52.822;6.860;2022-08-19T03:10:45;15.00;99.90
55173;DHT22;41061;52.822;6.860;2022-08-19T03:13:16;14.90;99.90
55173;DHT22;41061;52.822;6.860;2022-08-19T03:15:44;14.90;99.90
55173;DHT22;41061;52.822;6.860;2022-08-19T03:18:10;14.90;99.90
55173;DHT22;41061;52.822;6.860;2022-08-19T03:20:44;14.80;99.90
55173;DHT22;41061;52.822;6.860;2022-08-19T03:23:11;14.80;99.90
55173;DHT22;41061;52.822;6.860;2022-08-19T03:25:45;14.80;99.90
55173;DHT22;41061;52.822;6.860;2022-08-19T03:28:12;14.80;99.90
55173;DHT22;41061;52.822;6.860;2022-08-19T03:30:40;14.80;99.90
55173;DHT22;41061;52.822;6.860;2022-08-19T03:33:07;14.80;99.90
55173;DHT22;41061;52.822;6.860;2022-08-19T03:35:33;14.80;99.90
55173;DHT22;41061;52.822;6.860;2022-08-19T03:38:05;14.80;99.90
55173;DHT22;41061;52.822;6.860;2022-08-19T03:40:32;14.70;99.90
55173;DHT22;41061;52.822;6.860;2022-08-19T03:43:00;14.70;99.90
55173;DHT22;41061;52.822;6.860;2022-08-19T03:45:26;14.70;99.90
55173;DHT22;41061;52.822;6.860;2022-08-19T03:47:52;14.70;99.90
55173;DHT22;41061;52.822;6.860;2022-08-19T03:50:18;14.60;99.90
55173;DHT22;41061;52.822;6.860;2022-08-19T03:52:51;14.60;99.90
55173;DHT22;41061;52.822;6.860;2022-08-19T03:55:18;14.60;99.90
55173;DHT22;41061;52.822;6.860;2022-08-19T03:57:44;14.60;99.90
55173;DHT22;41061;52.822;6.860;2022-08-19T04:00:11;14.60;99.90
55173;DHT22;41061;52.822;6.860;2022-08-19T04:02:37;14.60;99.90
55173;DHT22;41061;52.822;6.860;2022-08-19T04:05:03;14.50;99.90
55173;DHT22;41061;52.822;6.860;2022-08-19T04:07:29;14.50;99.90
55173;DHT22;41061;52.822;6.860;2022-08-19T04:09:54;14.50;99.90
55173;DHT22;41061;52.822;6.860;2022-08-19T04:12:20;14.50;99.90
55173;DHT22;41061;52.822;6.860;2022-08-19T04:14:46;14.50;99.90
55173;DHT22;41061;52.822;6.860;2022-08-19T04:17:12;14.50;99.90
55173;DHT22;41061;52.822;6.860;2022-08-19T04:19:40;14.50;99.90
55173;DHT22;41061;52.822;6.860;2022-08-19T04:22:06;14.40;99.90
55173;DHT22;41061;52.822;6.860;2022-08-19T04:24:34;14.40;99.90
55173;DHT22;41061;52.822;6.860;2022-08-19T04:27:02;14.40;99.90
55173;DHT22;41061;52.822;6.860;2022-08-19T04:29:29;14.40;99.90
55173;DHT22;41061;52.822;6.860;2022-08-19T04:31:56;14.40;99.90
55173;DHT22;41061;52.822;6.860;2022-08-19T04:34:24;14.40;99.90
55173;DHT22;41061;52.822;6.860;2022-08-19T04:36:52;14.40;99.90
55173;DHT22;41061;52.822;6.860;2022-08-19T04:39:25;14.40;99.90
55173;DHT22;41061;52.822;6.860;2022-08-19T04:42:12;14.30;99.90
55173;DHT22;41061;52.822;6.860;2022-08-19T04:44:56;14.30;99.90
55173;DHT22;41061;52.822;6.860;2022-08-19T04:47:22;14.30;99.90
55173;DHT22;41061;52.822;6.860;2022-08-19T04:49:48;14.30;99.90
55173;DHT22;41061;52.822;6.860;2022-08-19T04:52:14;14.30;99.90
55173;DHT22;41061;52.822;6.860;2022-08-19T04:54:39;14.30;99.90
55173;DHT22;41061;52.822;6.860;2022-08-19T04:57:07;14.30;99.90
55173;DHT22;41061;52.822;6.860;2022-08-19T04:59:36;14.30;99.90
55173;DHT22;41061;52.822;6.860;2022-08-19T05:02:03;14.30;99.90
55173;DHT22;41061;52.822;6.860;2022-08-19T05:04:29;14.30;99.90
55173;DHT22;41061;52.822;6.860;2022-08-19T05:06:56;14.30;99.90
55173;DHT22;41061;52.822;6.860;2022-08-19T05:09:22;14.30;99.90
55173;DHT22;41061;52.822;6.860;2022-08-19T05:11:47;14.30;99.90
55173;DHT22;41061;52.822;6.860;2022-08-19T05:14:16;14.30;99.90
55173;DHT22;41061;52.822;6.860;2022-08-19T05:16:41;14.30;99.90
55173;DHT22;41061;52.822;6.860;2022-08-19T05:19:07;14.30;99.90
55173;DHT22;41061;52.822;6.860;2022-08-19T05:21:52;14.30;99.90
55173;DHT22;41061;52.822;6.860;2022-08-19T05:24:36;14.30;99.90
55173;DHT22;41061;52.822;6.860;2022-08-19T05:27:02;14.30;99.90
55173;DHT22;41061;52.822;6.860;2022-08-19T05:29:30;14.30;99.90
55173;DHT22;41061;52.822;6.860;2022-08-19T05:32:01;14.30;99.90
55173;DHT22;41061;52.822;6.860;2022-08-19T05:34:27;14.40;99.90
55173;DHT22;41061;52.822;6.860;2022-08-19T05:36:56;14.40;99.90
55173;DHT22;41061;52.822;6.860;2022-08-19T05:39:24;14.50;99.90
55173;DHT22;41061;52.822;6.860;2022-08-19T05:41:54;14.50;99.90
55173;DHT22;41061;52.822;6.860;2022-08-19T05:44:20;14.60;99.90
55173;DHT22;41061;52.822;6.860;2022-08-19T05:46:47;14.60;99.90
55173;DHT22;41061;52.822;6.860;2022-08-19T05:49:14;14.80;99.90
55173;DHT22;41061;52.822;6.860;2022-08-19T05:51:41;14.80;99.90
55173;DHT22;41061;52.822;6.860;2022-08-19T05:54:08;14.90;99.90
55173;DHT22;41061;52.822;6.860;2022-08-19T05:56:35;15.00;99.90
55173;DHT22;41061;52.822;6.860;2022-08-19T05:59:07;15.20;99.90
55173;DHT22;41061;52.822;6.860;2022-08-19T06:01:36;15.20;99.90
55173;DHT22;41061;52.822;6.860;2022-08-19T06:04:03;15.40;99.90
55173;DHT22;41061;52.822;6.860;2022-08-19T06:06:29;15.50;99.90
55173;DHT22;41061;52.822;6.860;2022-08-19T06:08:54;15.60;99.90
55173;DHT22;41061;52.822;6.860;2022-08-19T06:11:23;15.70;99.90
55173;DHT22;41061;52.822;6.860;2022-08-19T06:13:53;15.80;99.90
55173;DHT22;41061;52.822;6.860;2022-08-19T06:16:20;16.00;99.90
55173;DHT22;41061;52.822;6.860;2022-08-19T06:18:48;16.10;99.90
55173;DHT22;41061;52.822;6.860;2022-08-19T06:21:17;16.20;99.90
55173;DHT22;41061;52.822;6.860;2022-08-19T06:23:44;16.40;99.90
55173;DHT22;41061;52.822;6.860;2022-08-19T06:26:15;16.50;99.90
55173;DHT22;41061;52.822;6.860;2022-08-19T06:28:41;16.60;99.90
55173;DHT22;41061;52.822;6.860;2022-08-19T06:31:10;16.80;99.90
55173;DHT22;41061;52.822;6.860;2022-08-19T06:33:37;16.90;99.90
55173;DHT22;41061;52.822;6.860;2022-08-19T06:36:04;17.00;99.90
55173;DHT22;41061;52.822;6.860;2022-08-19T06:38:31;17.10;99.90
55173;DHT22;41061;52.822;6.860;2022-08-19T06:41:05;17.20;99.90
55173;DHT22;41061;52.822;6.860;2022-08-19T06:43:30;17.30;99.90
55173;DHT22;41061;52.822;6.860;2022-08-19T06:45:56;17.50;99.90
55173;DHT22;41061;52.822;6.860;2022-08-19T06:48:22;17.60;99.90
55173;DHT22;41061;52.822;6.860;2022-08-19T06:50:48;17.70;99.90
55173;DHT22;41061;52.822;6.860;2022-08-19T06:53:15;17.90;99.90
55173;DHT22;41061;52.822;6.860;2022-08-19T06:55:41;18.00;99.90
55173;DHT22;41061;52.822;6.860;2022-08-19T06:58:06;18.10;99.90
55173;DHT22;41061;52.822;6.860;2022-08-19T07:00:32;18.20;99.90
55173;DHT22;41061;52.822;6.860;2022-08-19T07:02:59;18.30;99.90
55173;DHT22;41061;52.822;6.860;2022-08-19T07:05:25;18.50;99.90
55173;DHT22;41061;52.822;6.860;2022-08-19T07:07:51;18.60;99.90
55173;DHT22;41061;52.822;6.860;2022-08-19T07:10:17;18.80;99.90
55173;DHT22;41061;52.822;6.860;2022-08-19T07:12:43;18.90;99.90
55173;DHT22;41061;52.822;6.860;2022-08-19T07:15:10;19.10;99.90
55173;DHT22;41061;52.822;6.860;2022-08-19T07:17:37;19.20;99.90
55173;DHT22;41061;52.822;6.860;2022-08-19T07:20:06;19.40;99.90
55173;DHT22;41061;52.822;6.860;2022-08-19T07:22:34;19.50;99.90
55173;DHT22;41061;52.822;6.860;2022-08-19T07:25:00;19.60;99.90
55173;DHT22;41061;52.822;6.860;2022-08-19T07:27:28;19.80;99.90
55173;DHT22;41061;52.822;6.860;2022-08-19T07:29:54;19.80;99.90
55173;DHT22;41061;52.822;6.860;2022-08-19T07:32:19;19.80;99.90
55173;DHT22;41061;52.822;6.860;2022-08-19T07:34:45;19.90;99.90
55173;DHT22;41061;52.822;6.860;2022-08-19T07:37:10;19.90;99.90
55173;DHT22;41061;52.822;6.860;2022-08-19T07:39:37;20.00;99.90
55173;DHT22;41061;52.822;6.860;2022-08-19T07:42:08;20.10;99.90
55173;DHT22;41061;52.822;6.860;2022-08-19T07:44:36;20.20;99.90
55173;DHT22;41061;52.822;6.860;2022-08-19T07:47:03;20.20;99.90
55173;DHT22;41061;52.822;6.860;2022-08-19T07:49:29;20.30;99.90
55173;DHT22;41061;52.822;6.860;2022-08-19T07:52:06;20.40;99.90
55173;DHT22;41061;52.822;6.860;2022-08-19T07:54:34;20.60;99.90
55173;DHT22;41061;52.822;6.860;2022-08-19T07:57:01;20.70;99.90
55173;DHT22;41061;52.822;6.860;2022-08-19T07:59:28;20.80;99.90
55173;DHT22;41061;52.822;6.860;2022-08-19T08:01:55;20.90;99.90
55173;DHT22;41061;52.822;6.860;2022-08-19T08:04:21;21.00;99.90
55173;DHT22;41061;52.822;6.860;2022-08-19T08:07:06;21.20;99.90
55173;DHT22;41061;52.822;6.860;2022-08-19T08:09:51;21.40;99.90
55173;DHT22;41061;52.822;6.860;2022-08-19T08:12:24;21.50;99.90
55173;DHT22;41061;52.822;6.860;2022-08-19T08:14:55;21.80;99.90
55173;DHT22;41061;52.822;6.860;2022-08-19T08:17:25;21.80;99.90
55173;DHT22;41061;52.822;6.860;2022-08-19T08:19:51;21.90;99.90
55173;DHT22;41061;52.822;6.860;2022-08-19T08:22:19;22.10;99.90
55173;DHT22;41061;52.822;6.860;2022-08-19T08:25:08;22.10;99.90
55173;DHT22;41061;52.822;6.860;2022-08-19T08:27:38;22.20;99.90
55173;DHT22;41061;52.822;6.860;2022-08-19T08:30:10;22.40;99.90
55173;DHT22;41061;52.822;6.860;2022-08-19T08:32:37;22.50;99.90
55173;DHT22;41061;52.822;6.860;2022-08-19T08:35:08;22.70;99.90
55173;DHT22;41061;52.822;6.860;2022-08-19T08:37:35;22.80;99.90
55173;DHT22;41061;52.822;6.860;2022-08-19T08:40:18;22.90;99.90
55173;DHT22;41061;52.822;6.860;2022-08-19T08:43:33;23.10;99.90
55173;DHT22;41061;52.822;6.860;2022-08-19T08:45:47;23.30;99.90
55173;DHT22;41061;52.822;6.860;2022-08-19T08:50:57;23.60;99.90
55173;DHT22;41061;52.822;6.860;2022-08-19T08:53:25;23.70;99.90
55173;DHT22;41061;52.822;6.860;2022-08-19T08:55:51;23.80;99.90
55173;DHT22;41061;52.822;6.860;2022-08-19T08:58:26;23.80;99.90
55173;DHT22;41061;52.822;6.860;2022-08-19T09:00:53;23.80;99.90
55173;DHT22;41061;52.822;6.860;2022-08-19T09:03:24;23.90;99.90
55173;DHT22;41061;52.822;6.860;2022-08-19T09:06:03;24.00;99.90
55173;DHT22;41061;52.822;6.860;2022-08-19T09:08:48;24.10;99.90
55173;DHT22;41061;52.822;6.860;2022-08-19T09:16:36;24.60;99.90
55173;DHT22;41061;52.822;6.860;2022-08-19T09:19:06;24.70;99.90
55173;DHT22;41061;52.822;6.860;2022-08-19T09:21:32;24.80;99.90
55173;DHT22;41061;52.822;6.860;2022-08-19T09:24:02;25.00;99.90
55173;DHT22;41061;52.822;6.860;2022-08-19T09:26:29;25.10;99.90
55173;DHT22;41061;52.822;6.860;2022-08-19T09:28:55;25.00;99.90
55173;DHT22;41061;52.822;6.860;2022-08-19T09:31:26;25.10;99.90
55173;DHT22;41061;52.822;6.860;2022-08-19T09:33:52;25.20;99.90
55173;DHT22;41061;52.822;6.860;2022-08-19T09:36:22;25.20;99.90
55173;DHT22;41061;52.822;6.860;2022-08-19T09:38:48;25.30;99.90
55173;DHT22;41061;52.822;6.860;2022-08-19T09:41:17;25.40;99.90
55173;DHT22;41061;52.822;6.860;2022-08-19T09:43:50;25.50;99.90
55173;DHT22;41061;52.822;6.860;2022-08-19T09:46:21;25.60;99.90
55173;DHT22;41061;52.822;6.860;2022-08-19T09:48:48;25.70;99.90
55173;DHT22;41061;52.822;6.860;2022-08-19T09:51:21;25.60;99.90
55173;DHT22;41061;52.822;6.860;2022-08-19T09:53:47;25.70;99.90
55173;DHT22;41061;52.822;6.860;2022-08-19T09:56:17;25.80;99.90
55173;DHT22;41061;52.822;6.860;2022-08-19T09:58:43;25.90;99.90
55173;DHT22;41061;52.822;6.860;2022-08-19T10:01:09;25.80;99.90
55173;DHT22;41061;52.822;6.860;2022-08-19T10:03:40;25.80;99.90
55173;DHT22;41061;52.822;6.860;2022-08-19T10:06:06;25.90;99.90
55173;DHT22;41061;52.822;6.860;2022-08-19T10:08:35;26.10;99.90
55173;DHT22;41061;52.822;6.860;2022-08-19T10:11:02;26.20;99.90
55173;DHT22;41061;52.822;6.860;2022-08-19T10:13:30;26.50;99.90
55173;DHT22;41061;52.822;6.860;2022-08-19T10:16:04;26.60;99.90
55173;DHT22;41061;52.822;6.860;2022-08-19T10:18:30;26.70;99.90
55173;DHT22;41061;52.822;6.860;2022-08-19T10:21:15;26.60;99.90
55173;DHT22;41061;52.822;6.860;2022-08-19T10:23:44;26.30;99.90
55173;DHT22;41061;52.822;6.860;2022-08-19T10:26:16;26.10;99.90
55173;DHT22;41061;52.822;6.860;2022-08-19T10:28:42;26.10;99.90
55173;DHT22;41061;52.822;6.860;2022-08-19T10:31:10;26.30;99.90
55173;DHT22;41061;52.822;6.860;2022-08-19T10:33:36;26.40;99.90
55173;DHT22;41061;52.822;6.860;2022-08-19T10:36:07;26.70;99.90
55173;DHT22;41061;52.822;6.860;2022-08-19T10:38:33;26.80;99.90
55173;DHT22;41061;52.822;6.860;2022-08-19T10:41:11;27.00;99.90
55173;DHT22;41061;52.822;6.860;2022-08-19T10:43:37;27.10;99.90
55173;DHT22;41061;52.822;6.860;2022-08-19T10:46:06;27.30;99.90
55173;DHT22;41061;52.822;6.860;2022-08-19T10:48:32;27.30;99.90
55173;DHT22;41061;52.822;6.860;2022-08-19T10:50:58;27.30;99.90
55173;DHT22;41061;52.822;6.860;2022-08-19T10:53:43;27.40;99.90
55173;DHT22;41061;52.822;6.860;2022-08-19T10:56:08;27.10;99.90
55173;DHT22;41061;52.822;6.860;2022-08-19T10:58:53;26.70;99.90
55173;DHT22;41061;52.822;6.860;2022-08-19T11:01:19;26.70;99.90
55173;DHT22;41061;52.822;6.860;2022-08-19T11:03:45;26.80;99.90
55173;DHT22;41061;52.822;6.860;2022-08-19T11:06:10;26.80;99.90
55173;DHT22;41061;52.822;6.860;2022-08-19T11:08:37;27.10;99.90
55173;DHT22;41061;52.822;6.860;2022-08-19T11:11:04;27.20;99.90
55173;DHT22;41061;52.822;6.860;2022-08-19T11:13:33;27.40;99.90
55173;DHT22;41061;52.822;6.860;2022-08-19T11:16:08;27.60;99.90
55173;DHT22;41061;52.822;6.860;2022-08-19T11:18:40;27.70;99.90
55173;DHT22;41061;52.822;6.860;2022-08-19T11:21:08;27.40;99.90
55173;DHT22;41061;52.822;6.860;2022-08-19T11:23:34;27.20;99.90
55173;DHT22;41061;52.822;6.860;2022-08-19T11:26:00;27.20;99.90
55173;DHT22;41061;52.822;6.860;2022-08-19T11:28:26;27.50;99.90
55173;DHT22;41061;52.822;6.860;2022-08-19T11:30:52;27.80;99.90
55173;DHT22;41061;52.822;6.860;2022-08-19T11:33:18;28.00;99.90
55173;DHT22;41061;52.822;6.860;2022-08-19T11:35:44;28.20;99.90
55173;DHT22;41061;52.822;6.860;2022-08-19T11:38:10;28.40;99.90
55173;DHT22;41061;52.822;6.860;2022-08-19T11:40:37;28.50;99.90
55173;DHT22;41061;52.822;6.860;2022-08-19T11:43:03;28.50;99.90
55173;DHT22;41061;52.822;6.860;2022-08-19T11:45:30;28.50;99.90
55173;DHT22;41061;52.822;6.860;2022-08-19T11:47:56;28.50;99.90
55173;DHT22;41061;52.822;6.860;2022-08-19T11:50:23;28.30;99.90
55173;DHT22;41061;52.822;6.860;2022-08-19T11:52:48;28.00;99.90
55173;DHT22;41061;52.822;6.860;2022-08-19T11:55:15;27.70;99.90
55173;DHT22;41061;52.822;6.860;2022-08-19T11:57:41;27.40;99.90
55173;DHT22;41061;52.822;6.860;2022-08-19T12:00:08;27.10;99.90
55173;DHT22;41061;52.822;6.860;2022-08-19T12:02:35;26.80;99.90
55173;DHT22;41061;52.822;6.860;2022-08-19T12:05:01;26.60;99.90
55173;DHT22;41061;52.822;6.860;2022-08-19T12:07:29;26.40;99.90
55173;DHT22;41061;52.822;6.860;2022-08-19T12:09:58;26.30;99.90
55173;DHT22;41061;52.822;6.860;2022-08-19T12:12:24;26.40;99.90
55173;DHT22;41061;52.822;6.860;2022-08-19T12:14:51;26.60;99.90
55173;DHT22;41061;52.822;6.860;2022-08-19T12:17:23;26.70;99.90
55173;DHT22;41061;52.822;6.860;2022-08-19T12:19:49;26.60;99.90
55173;DHT22;41061;52.822;6.860;2022-08-19T12:22:15;26.60;99.90
55173;DHT22;41061;52.822;6.860;2022-08-19T12:24:40;26.80;99.90
55173;DHT22;41061;52.822;6.860;2022-08-19T12:27:06;27.30;99.90
55173;DHT22;41061;52.822;6.860;2022-08-19T12:29:32;27.50;99.90
55173;DHT22;41061;52.822;6.860;2022-08-19T12:31:58;27.50;99.90
55173;DHT22;41061;52.822;6.860;2022-08-19T12:34:30;27.50;99.90
55173;DHT22;41061;52.822;6.860;2022-08-19T12:36:57;27.60;99.90
55173;DHT22;41061;52.822;6.860;2022-08-19T12:39:24;27.80;99.90
55173;DHT22;41061;52.822;6.860;2022-08-19T12:41:50;28.10;99.90
55173;DHT22;41061;52.822;6.860;2022-08-19T12:44:16;28.20;99.90
55173;DHT22;41061;52.822;6.860;2022-08-19T12:46:42;28.10;99.90
55173;DHT22;41061;52.822;6.860;2022-08-19T12:49:08;28.00;99.90
55173;DHT22;41061;52.822;6.860;2022-08-19T12:51:33;28.10;99.90
55173;DHT22;41061;52.822;6.860;2022-08-19T12:53:59;28.20;99.90
55173;DHT22;41061;52.822;6.860;2022-08-19T12:56:26;28.20;99.90
55173;DHT22;41061;52.822;6.860;2022-08-19T12:58:52;28.00;99.90
55173;DHT22;41061;52.822;6.860;2022-08-19T13:01:18;27.80;99.90
55173;DHT22;41061;52.822;6.860;2022-08-19T13:03:46;27.60;99.90
55173;DHT22;41061;52.822;6.860;2022-08-19T13:06:12;27.50;99.90
55173;DHT22;41061;52.822;6.860;2022-08-19T13:08:38;27.40;99.90
55173;DHT22;41061;52.822;6.860;2022-08-19T13:11:23;27.20;99.90
55173;DHT22;41061;52.822;6.860;2022-08-19T13:13:50;27.00;99.90
55173;DHT22;41061;52.822;6.860;2022-08-19T13:16:16;26.90;99.90
55173;DHT22;41061;52.822;6.860;2022-08-19T13:18:45;26.80;99.90
55173;DHT22;41061;52.822;6.860;2022-08-19T13:21:13;26.70;99.90
55173;DHT22;41061;52.822;6.860;2022-08-19T13:23:39;26.80;99.90
55173;DHT22;41061;52.822;6.860;2022-08-19T13:26:07;26.90;99.90
55173;DHT22;41061;52.822;6.860;2022-08-19T13:28:34;26.90;99.90
55173;DHT22;41061;52.822;6.860;2022-08-19T13:31:21;27.00;99.90
55173;DHT22;41061;52.822;6.860;2022-08-19T13:34:06;27.10;99.90
55173;DHT22;41061;52.822;6.860;2022-08-19T13:36:36;27.20;99.90
55173;DHT22;41061;52.822;6.860;2022-08-19T13:39:02;27.40;99.90
55173;DHT22;41061;52.822;6.860;2022-08-19T13:41:28;27.50;99.90
55173;DHT22;41061;52.822;6.860;2022-08-19T13:43:54;27.50;99.90
55173;DHT22;41061;52.822;6.860;2022-08-19T13:46:20;27.50;99.90
55173;DHT22;41061;52.822;6.860;2022-08-19T13:48:47;27.50;99.90
55173;DHT22;41061;52.822;6.860;2022-08-19T13:51:17;27.50;99.90
55173;DHT22;41061;52.822;6.860;2022-08-19T13:53:43;27.40;99.90
55173;DHT22;41061;52.822;6.860;2022-08-19T13:56:12;27.40;99.90
55173;DHT22;41061;52.822;6.860;2022-08-19T13:58:38;27.40;99.90
55173;DHT22;41061;52.822;6.860;2022-08-19T14:01:05;27.30;99.90
55173;DHT22;41061;52.822;6.860;2022-08-19T14:03:32;27.30;99.90
55173;DHT22;41061;52.822;6.860;2022-08-19T14:05:59;27.30;99.90
55173;DHT22;41061;52.822;6.860;2022-08-19T14:08:25;27.30;99.90
55173;DHT22;41061;52.822;6.860;2022-08-19T14:10:56;27.30;99.90
55173;DHT22;41061;52.822;6.860;2022-08-19T14:13:22;27.30;99.90
55173;DHT22;41061;52.822;6.860;2022-08-19T14:15:49;27.40;99.90
55173;DHT22;41061;52.822;6.860;2022-08-19T14:18:17;27.40;99.90
55173;DHT22;41061;52.822;6.860;2022-08-19T14:20:43;27.50;99.90
55173;DHT22;41061;52.822;6.860;2022-08-19T14:23:10;27.50;99.90
55173;DHT22;41061;52.822;6.860;2022-08-19T14:25:37;27.50;99.90
55173;DHT22;41061;52.822;6.860;2022-08-19T14:28:03;27.40;99.90
55173;DHT22;41061;52.822;6.860;2022-08-19T14:30:33;27.50;99.90
55173;DHT22;41061;52.822;6.860;2022-08-19T14:33:01;27.50;99.90
55173;DHT22;41061;52.822;6.860;2022-08-19T14:35:28;27.50;99.90
55173;DHT22;41061;52.822;6.860;2022-08-19T14:37:55;27.50;99.90
55173;DHT22;41061;52.822;6.860;2022-08-19T14:40:23;27.50;99.90
55173;DHT22;41061;52.822;6.860;2022-08-19T14:42:56;27.70;99.90
55173;DHT22;41061;52.822;6.860;2022-08-19T14:45:26;27.90;99.90
55173;DHT22;41061;52.822;6.860;2022-08-19T14:47:52;28.00;99.30
55173;DHT22;41061;52.822;6.860;2022-08-19T14:50:18;28.00;98.90
55173;DHT22;41061;52.822;6.860;2022-08-19T14:52:48;27.80;98.80
55173;DHT22;41061;52.822;6.860;2022-08-19T14:55:16;27.70;98.90
55173;DHT22;41061;52.822;6.860;2022-08-19T14:57:43;27.60;98.60
55173;DHT22;41061;52.822;6.860;2022-08-19T15:00:10;27.50;99.60
55173;DHT22;41061;52.822;6.860;2022-08-19T15:02:42;27.30;99.90
55173;DHT22;41061;52.822;6.860;2022-08-19T15:05:09;27.20;99.90
55173;DHT22;41061;52.822;6.860;2022-08-19T15:07:36;27.00;99.90
55173;DHT22;41061;52.822;6.860;2022-08-19T15:10:03;27.00;99.90
55173;DHT22;41061;52.822;6.860;2022-08-19T15:12:29;26.90;99.90
55173;DHT22;41061;52.822;6.860;2022-08-19T15:14:54;26.90;99.90
55173;DHT22;41061;52.822;6.860;2022-08-19T15:17:20;26.90;99.90
55173;DHT22;41061;52.822;6.860;2022-08-19T15:19:46;26.80;99.90
55173;DHT22;41061;52.822;6.860;2022-08-19T15:22:11;26.80;99.90
55173;DHT22;41061;52.822;6.860;2022-08-19T15:24:37;26.70;99.90
55173;DHT22;41061;52.822;6.860;2022-08-19T15:27:04;26.60;99.90
55173;DHT22;41061;52.822;6.860;2022-08-19T15:29:31;26.50;99.90
55173;DHT22;41061;52.822;6.860;2022-08-19T15:31:57;26.30;99.90
55173;DHT22;41061;52.822;6.860;2022-08-19T15:34:24;26.20;99.90
55173;DHT22;41061;52.822;6.860;2022-08-19T15:36:51;26.20;99.90
55173;DHT22;41061;52.822;6.860;2022-08-19T15:39:18;26.10;99.90
55173;DHT22;41061;52.822;6.860;2022-08-19T15:41:45;25.90;99.90
55173;DHT22;41061;52.822;6.860;2022-08-19T15:44:16;25.80;99.90
55173;DHT22;41061;52.822;6.860;2022-08-19T15:46:44;25.70;99.90